Wharton, TX

7:54 AM CST on December 09, 2016 (GMT -0600)
Wharton Regional

Weather History for KARM - September, 2013

Change the Weather History Date:

Friday, September 13, 2013

  Actual Average (KPSX) Record (KPSX)
Temperature  
Mean Temperature 81 °F -  
Max Temperature 95 °F 88 °F 95 °F (1980)
Min Temperature 68 °F 73 °F 60 °F (1945)
Cooling Degree Days 16    
Growing Degree Days 31 (Base 50)    
Moisture  
Dew Point 67 °F    
Average Humidity 70    
Maximum Humidity 96    
Minimum Humidity 32    
Precipitation  
Precipitation 0.00 in - - ()
Sea Level Pressure  
Sea Level Pressure 29.90 in    
Wind  
Wind Speed 4 mph (ENE)    
Max Wind Speed 15 mph    
Max Gust Speed 21 mph    
Visibility 10 miles    
Events      
Averages and records for this station are not official NWS values.
T = Trace of Precipitation, MM = Missing Value Source: NWS Daily Summary

Daily Weather History Graph

Daily Weather History Graph

Search for Another Location

Airport or City:

Trip Planner

Search our weather history database for the weather conditions in past years. The results will help you decide how hot, cold, wet, or windy it might be!

Date:

Astronomy

Sep. 13, 2013 Rise Set
Actual Time 7:08 AM CDT 7:31 PM CDT
Civil Twilight 6:44 AM CDT 7:55 PM CDT
Nautical Twilight 6:16 AM CDT 8:23 PM CDT
Astronomical Twilight 5:48 AM CDT 8:51 PM CDT
Moon 3:03 PM CDT (9/13) 12:59 AM CDT (9/13)
Length of Visible Light 13h 10m
Length of Day
12h 23m
First Quarter, 61% of the Moon is Illuminated
Sep 13
First Quarter
Sep 19
Full
Sep 26
Last Quarter
Oct 4
New
Oct 11
First Quarter

Hourly Weather History & Observations

Time (CDT) Temp. Heat Index Dew Point Humidity Pressure Visibility Wind Dir Wind Speed Gust Speed Precip Events Conditions
12:15 AM 73.0 °F - 70.0 °F 90% 29.96 in 10.0 mi Calm Calm - N/A   Clear
12:35 AM 71.6 °F - 69.6 °F 93% 29.95 in 10.0 mi Calm Calm - N/A   Clear
12:55 AM 71.8 °F - 69.8 °F 93% 29.95 in 10.0 mi Calm Calm - N/A   Clear
1:15 AM 70.2 °F - 68.4 °F 94% 29.94 in 10.0 mi Calm Calm - N/A   Clear
1:35 AM 70.3 °F - 68.5 °F 94% 29.94 in 10.0 mi North 3.5 mph - N/A   Clear
1:55 AM 70.2 °F - 68.4 °F 94% 29.94 in 10.0 mi Calm Calm - N/A   Clear
2:15 AM 68.9 °F - 67.3 °F 95% 29.94 in 7.0 mi Calm Calm - N/A   Clear
2:35 AM 69.3 °F - 67.6 °F 95% 29.94 in 10.0 mi North 3.5 mph - N/A   Clear
2:55 AM 70.0 °F - 68.5 °F 95% 29.94 in 10.0 mi North 3.5 mph - N/A   Clear
3:15 AM 70.7 °F - 69.1 °F 95% 29.93 in 10.0 mi Calm Calm - N/A   Clear
3:35 AM 71.2 °F - 69.3 °F 93% 29.93 in 10.0 mi Calm Calm - N/A   Clear
3:55 AM 69.8 °F - 68.0 °F 94% 29.93 in 10.0 mi North 4.6 mph - N/A   Clear
4:15 AM 69.1 °F - 67.6 °F 95% 29.92 in 7.0 mi North 4.6 mph - N/A   Clear
4:35 AM 68.9 °F - 67.6 °F 96% 29.92 in 10.0 mi North 4.6 mph - N/A   Clear
4:55 AM 69.4 °F - 68.2 °F 96% 29.93 in 10.0 mi North 3.5 mph - N/A   Clear
5:15 AM 69.4 °F - 68.2 °F 96% 29.93 in 7.0 mi North 3.5 mph - N/A   Clear
5:35 AM 69.8 °F - 68.4 °F 95% 29.93 in 7.0 mi Calm Calm - N/A   Clear
5:55 AM 69.1 °F - 67.8 °F 96% 29.93 in 7.0 mi North 3.5 mph - N/A   Clear
6:15 AM 69.6 °F - 68.4 °F 96% 29.94 in 7.0 mi NNW 3.5 mph - N/A   Clear
6:35 AM 69.1 °F - 68.0 °F 96% 29.94 in 7.0 mi NNW 3.5 mph - N/A   Clear
6:55 AM 68.4 °F - 67.3 °F 96% 29.93 in 7.0 mi NNW 3.5 mph - N/A   Clear
7:15 AM 68.7 °F - 67.5 °F 96% 29.93 in 5.0 mi North 4.6 mph - N/A   Clear
7:35 AM 69.6 °F - 68.4 °F 96% 29.93 in 7.0 mi North 4.6 mph - N/A   Clear
7:55 AM 70.7 °F - 69.6 °F 96% 29.93 in 7.0 mi North 6.9 mph - N/A   Clear
8:15 AM 72.5 °F - 70.7 °F 94% 29.93 in 10.0 mi North 5.8 mph - N/A   Clear
8:35 AM 74.5 °F - 71.8 °F 91% 29.93 in 10.0 mi North 6.9 mph - N/A   Clear
8:55 AM 76.5 °F - 72.0 °F 86% 29.93 in 10.0 mi North 4.6 mph - N/A   Clear
9:15 AM 79.0 °F - 72.3 °F 80% 29.93 in 10.0 mi North 5.8 mph - N/A   Clear
9:35 AM 81.1 °F 85.6 °F 72.3 °F 74% 29.94 in 10.0 mi North 6.9 mph - N/A   Clear
9:55 AM 83.1 °F 88.9 °F 72.9 °F 71% 29.95 in 10.0 mi NNE 6.9 mph - N/A   Clear
10:15 AM 84.4 °F 90.6 °F 72.9 °F 68% 29.95 in 10.0 mi NNE 5.8 mph - N/A   Clear
10:35 AM 86.2 °F 92.2 °F 72.0 °F 62% 29.95 in 10.0 mi Calm Calm - N/A   Clear
10:55 AM 87.3 °F 92.0 °F 70.0 °F 56% 29.94 in 10.0 mi NE 4.6 mph - N/A   Clear
11:15 AM 88.3 °F 93.2 °F 69.6 °F 54% 29.94 in 10.0 mi NE 3.5 mph - N/A   Clear
11:35 AM 89.4 °F 94.0 °F 69.1 °F 51% 29.93 in 10.0 mi East 4.6 mph - N/A   Scattered Clouds
11:55 AM 90.9 °F 94.8 °F 67.8 °F 47% 29.93 in 10.0 mi East 10.4 mph - N/A   Scattered Clouds
12:15 PM 91.8 °F 94.2 °F 65.5 °F 42% 29.93 in 10.0 mi ENE 9.2 mph 16.1 mph N/A   Clear
12:35 PM 92.8 °F 95.2 °F 65.3 °F 40% 29.91 in 10.0 mi SE 5.8 mph 18.4 mph N/A   Clear
12:55 PM 93.9 °F 95.6 °F 63.7 °F 37% 29.90 in 10.0 mi ENE 6.9 mph - N/A   Clear
1:15 PM 93.0 °F 93.4 °F 61.3 °F 35% 29.90 in 10.0 mi ENE 11.5 mph 17.3 mph N/A   Scattered Clouds
1:35 PM 94.6 °F 95.5 °F 62.2 °F 34% 29.89 in 10.0 mi East 11.5 mph 17.3 mph N/A   Scattered Clouds
1:55 PM 94.5 °F 95.2 °F 62.4 °F 34% 29.88 in 10.0 mi ESE 9.2 mph 16.1 mph N/A   Scattered Clouds
2:15 PM 94.1 °F 95.0 °F 62.6 °F 35% 29.87 in 10.0 mi East 11.5 mph 18.4 mph N/A   Scattered Clouds
2:35 PM 93.9 °F 94.8 °F 62.8 °F 35% 29.86 in 10.0 mi ESE 10.4 mph 16.1 mph N/A   Scattered Clouds
2:55 PM 94.1 °F 95.5 °F 63.7 °F 36% 29.85 in 10.0 mi East 9.2 mph 20.7 mph N/A   Scattered Clouds
3:15 PM 93.4 °F 94.3 °F 62.8 °F 36% 29.84 in 10.0 mi ESE 11.5 mph 17.3 mph N/A   Scattered Clouds
3:35 PM 94.3 °F 94.9 °F 61.5 °F 34% 29.84 in 10.0 mi East 13.8 mph 19.6 mph N/A   Scattered Clouds
3:55 PM 94.5 °F 95.2 °F 62.2 °F 34% 29.83 in 10.0 mi East 10.4 mph 17.3 mph N/A   Scattered Clouds
4:15 PM 94.3 °F 94.9 °F 62.2 °F 34% 29.83 in 10.0 mi East 9.2 mph - N/A   Clear
4:35 PM 94.3 °F 94.1 °F 60.4 °F 32% 29.83 in 10.0 mi ENE 8.1 mph 19.6 mph N/A   Clear
4:55 PM 94.3 °F 94.5 °F 60.8 °F 33% 29.83 in 10.0 mi East 12.7 mph 19.6 mph N/A   Clear
5:15 PM 93.2 °F 93.3 °F 61.3 °F 34% 29.82 in 10.0 mi East 8.1 mph 18.4 mph N/A   Clear
5:35 PM 92.3 °F 92.3 °F 61.2 °F 35% 29.82 in 10.0 mi ESE 11.5 mph 20.7 mph N/A   Clear
5:55 PM 91.4 °F 91.4 °F 60.6 °F 36% 29.82 in 10.0 mi ESE 11.5 mph 18.4 mph N/A   Clear
6:15 PM 90.5 °F 90.1 °F 60.3 °F 36% 29.82 in 10.0 mi ESE 15.0 mph 18.4 mph N/A   Clear
6:35 PM 89.6 °F 89.8 °F 61.3 °F 39% 29.83 in 10.0 mi ESE 11.5 mph - N/A   Clear
6:55 PM 88.5 °F 88.9 °F 62.2 °F 41% 29.83 in 10.0 mi ESE 10.4 mph - N/A   Clear
7:15 PM 86.0 °F 87.1 °F 63.9 °F 47% 29.83 in 10.0 mi ESE 5.8 mph - N/A   Clear
7:35 PM 83.7 °F 85.5 °F 65.3 °F 54% 29.83 in 10.0 mi SE 6.9 mph - N/A   Clear
7:55 PM 81.9 °F 83.9 °F 65.8 °F 58% 29.84 in 10.0 mi SE 6.9 mph - N/A   Clear
8:15 PM 78.6 °F - 66.9 °F 67% 29.85 in 10.0 mi SE 5.8 mph - N/A   Clear
8:35 PM 77.2 °F - 68.7 °F 75% 29.85 in 10.0 mi SE 5.8 mph - N/A   Clear
8:55 PM 76.6 °F - 68.9 °F 77% 29.85 in 10.0 mi SE 5.8 mph - N/A   Clear
9:15 PM 75.6 °F - 69.8 °F 82% 29.85 in 10.0 mi SE 5.8 mph - N/A   Clear
9:35 PM 75.6 °F - 70.0 °F 83% 29.86 in 10.0 mi SE 4.6 mph - N/A   Clear
9:55 PM 74.5 °F - 70.2 °F 86% 29.86 in 10.0 mi SSE 3.5 mph - N/A   Clear
10:15 PM 74.5 °F - 70.7 °F 88% 29.87 in 10.0 mi SSE 4.6 mph - N/A   Clear
10:35 PM 74.7 °F - 70.9 °F 88% 29.88 in 10.0 mi SE 3.5 mph - N/A   Clear
10:55 PM 74.7 °F - 71.2 °F 89% 29.88 in 10.0 mi Calm Calm - N/A   Clear
11:15 PM 74.3 °F - 71.1 °F 90% 29.88 in 10.0 mi Calm Calm - N/A   Clear
11:35 PM 73.4 °F - 71.1 °F 92% - 10.0 mi SSE 3.5 mph - N/A   Clear
11:55 PM 72.3 °F - 70.5 °F 94% 29.87 in 10.0 mi SSE 3.5 mph - N/A   Clear